Time;durP1;ratioP1;P1;durP2;ratioP2;P2;SDS_P1;SDS_P2;PMS_P1;PMS_P2;Temp;Humidity;BMP_temperature;BMP_pressure;BME280_temperature;BME280_humidity;BME280_pressure;Samples;Min_cycle;Max_cycle;Signal;HPM_P1;HPM_P2
2022/03/14 00:00:16;;;;;;;16.50;7.10;;;;;;;-2.33;100.00;100945.75;5154103;27;20050;-60
2022/03/14 00:02:42;;;;;;;16.08;7.20;;;;;;;-2.30;100.00;100964.09;5153860;27;20053;-60
2022/03/14 00:05:10;;;;;;;13.35;6.60;;;;;;;-2.35;100.00;100963.97;5153928;27;20146;-60
2022/03/14 00:07:38;;;;;;;12.38;6.47;;;;;;;-2.37;100.00;100961.53;5153728;27;20050;-60
2022/03/14 00:10:06;;;;;;;13.80;7.00;;;;;;;-2.38;100.00;100970.63;5154044;27;20047;-60
2022/03/14 00:12:32;;;;;;;11.65;6.30;;;;;;;-2.37;100.00;100979.47;5153776;27;20055;-60
2022/03/14 00:14:59;;;;;;;18.88;6.60;;;;;;;-2.37;100.00;100984.84;5153987;27;20051;-61
2022/03/14 00:17:26;;;;;;;11.23;6.22;;;;;;;-2.34;100.00;100987.06;5153937;27;20181;-60
2022/03/14 00:19:53;;;;;;;12.50;6.75;;;;;;;-2.29;100.00;100994.44;5153857;27;20046;-60
2022/03/14 00:22:22;;;;;;;16.80;6.75;;;;;;;-2.32;100.00;100995.72;5153708;27;20495;-60
2022/03/14 00:24:49;;;;;;;13.15;6.75;;;;;;;-2.35;100.00;101006.13;5153632;27;20054;-61
2022/03/14 00:27:16;;;;;;;13.43;6.15;;;;;;;-2.34;100.00;101005.06;5153642;27;20049;-60
2022/03/14 00:29:42;;;;;;;15.38;6.55;;;;;;;-2.31;100.00;101016.16;5153474;27;20057;-60
2022/03/14 00:32:08;;;;;;;15.02;6.30;;;;;;;-2.29;100.00;101016.75;5153526;27;20118;-60
2022/03/14 00:34:34;;;;;;;16.77;5.85;;;;;;;-2.26;100.00;101013.59;5152749;27;20159;-60
2022/03/14 00:37:01;;;;;;;15.25;6.50;;;;;;;-2.29;100.00;101016.75;5153411;27;20046;-60
2022/03/14 00:39:27;;;;;;;17.13;7.43;;;;;;;-2.27;100.00;101008.44;5153494;27;20078;-60
2022/03/14 00:41:54;;;;;;;15.63;6.18;;;;;;;-2.30;100.00;101001.69;5153597;27;20489;-60
2022/03/14 00:44:20;;;;;;;13.57;7.18;;;;;;;-2.35;100.00;100998.06;5153379;27;20053;-60
2022/03/14 00:46:47;;;;;;;13.65;6.32;;;;;;;-2.36;100.00;101002.63;5153380;27;20047;-60
2022/03/14 00:49:13;;;;;;;15.20;6.32;;;;;;;-2.37;100.00;101009.03;5153149;27;20506;-60
2022/03/14 00:51:40;;;;;;;17.55;6.90;;;;;;;-2.33;100.00;101012.91;5152730;27;20054;-60
2022/03/14 00:54:07;;;;;;;11.07;5.72;;;;;;;-2.33;100.00;101020.97;5153282;27;20058;-60
2022/03/14 00:56:33;;;;;;;10.48;6.18;;;;;;;-2.33;100.00;101010.22;5153010;27;20046;-60
2022/03/14 00:59:00;;;;;;;15.73;6.90;;;;;;;-2.38;100.00;101005.53;5153090;27;20524;-60
2022/03/14 01:01:26;;;;;;;16.58;6.07;;;;;;;-2.47;100.00;101001.56;5153088;27;20501;-60
2022/03/14 01:03:53;;;;;;;13.70;6.88;;;;;;;-2.52;100.00;101006.81;5152858;27;20047;-60
2022/03/14 01:06:19;;;;;;;11.93;6.35;;;;;;;-2.62;100.00;101010.09;5153074;27;20047;-60
2022/03/14 01:08:46;;;;;;;16.65;6.68;;;;;;;-2.62;100.00;101011.97;5152896;27;20541;-60
2022/03/14 01:11:12;;;;;;;13.75;6.00;;;;;;;-2.68;100.00;101007.50;5152696;27;20054;-60
2022/03/14 01:13:38;;;;;;;14.63;6.40;;;;;;;-2.72;100.00;101012.53;5153054;27;20141;-60
2022/03/14 01:16:06;;;;;;;12.40;6.78;;;;;;;-2.69;100.00;101022.00;5153044;27;20043;-60
2022/03/14 01:18:32;;;;;;;10.68;6.20;;;;;;;-2.70;100.00;101029.22;5152703;27;20046;-60
2022/03/14 01:20:59;;;;;;;13.93;5.78;;;;;;;-2.65;100.00;101044.63;5152822;27;20055;-60
2022/03/14 01:23:25;;;;;;;13.20;6.25;;;;;;;-2.61;100.00;101046.63;5152992;27;20353;-60
2022/03/14 01:25:51;;;;;;;11.65;5.68;;;;;;;-2.58;100.00;101049.91;5152692;27;20054;-60
2022/03/14 01:28:18;;;;;;;14.15;6.20;;;;;;;-2.54;100.00;101057.25;5152868;27;20046;-60
2022/03/14 01:30:44;;;;;;;10.65;5.97;;;;;;;-2.54;100.00;101054.56;5152393;27;20050;-60
2022/03/14 01:33:11;;;;;;;23.05;6.03;;;;;;;-2.52;100.00;101049.78;5152323;27;20054;-60
2022/03/14 01:35:39;;;;;;;11.73;5.55;;;;;;;-2.56;100.00;101051.31;5152292;27;20140;-60
2022/03/14 01:38:06;;;;;;;13.50;5.47;;;;;;;-2.54;100.00;101054.56;5152373;27;20047;-60
2022/03/14 01:40:32;;;;;;;11.60;5.82;;;;;;;-2.52;100.00;101047.09;5152265;27;20046;-60
2022/03/14 01:42:59;;;;;;;9.25;5.00;;;;;;;-2.52;100.00;101051.66;5152367;27;20054;-60
2022/03/14 01:45:25;;;;;;;8.07;4.80;;;;;;;-2.51;100.00;101054.09;5152111;27;20050;-60
2022/03/14 01:47:52;;;;;;;10.57;4.60;;;;;;;-2.59;100.00;101046.41;5152105;27;20046;-60
2022/03/14 01:50:19;;;;;;;7.97;4.97;;;;;;;-2.59;100.00;101042.91;5152193;27;20057;-60
2022/03/14 01:52:47;;;;;;;11.02;5.00;;;;;;;-2.64;100.00;101048.94;5152524;27;20462;-60
2022/03/14 01:55:14;;;;;;;11.27;5.28;;;;;;;-2.65;100.00;101048.13;5152348;27;20050;-60
2022/03/14 01:57:41;;;;;;;8.65;5.07;;;;;;;-2.65;100.00;101048.13;5152081;27;20047;-60
2022/03/14 02:00:10;;;;;;;10.98;4.43;;;;;;;-2.66;100.00;101048.38;5151845;27;20058;-60
2022/03/14 02:02:36;;;;;;;11.13;5.55;;;;;;;-2.66;100.00;101051.06;5151315;27;20053;-60
2022/03/14 02:05:03;;;;;;;13.60;5.10;;;;;;;-2.65;100.00;101052.69;5152230;27;20046;-61
2022/03/14 02:07:32;;;;;;;12.77;4.88;;;;;;;-2.67;100.00;101049.41;5152246;27;20047;-60
2022/03/14 02:09:59;;;;;;;9.52;5.10;;;;;;;-2.63;100.00;101062.16;5152491;27;20046;-60
2022/03/14 02:12:25;;;;;;;9.50;5.28;;;;;;;-2.64;100.00;101055.13;5152060;27;20047;-60
2022/03/14 02:14:51;;;;;;;12.13;5.97;;;;;;;-2.61;100.00;101061.91;5152375;27;20504;-60
2022/03/14 02:17:20;;;;;;;7.60;4.53;;;;;;;-2.66;100.00;101057.25;5152261;27;20103;-60
2022/03/14 02:19:46;;;;;;;9.38;5.03;;;;;;;-2.60;100.00;101071.59;5151968;27;20046;-60
2022/03/14 02:22:13;;;;;;;10.35;5.30;;;;;;;-2.54;100.00;101075.22;5152033;27;20539;-60
2022/03/14 02:24:40;;;;;;;8.70;4.82;;;;;;;-2.56;100.00;101063.94;5151997;27;20456;-60
2022/03/14 02:27:07;;;;;;;14.40;5.60;;;;;;;-2.53;100.00;101066.97;5151649;27;20065;-60
2022/03/14 02:29:33;;;;;;;11.30;5.53;;;;;;;-2.50;100.00;101073.72;5151835;27;20051;-60
2022/03/14 02:31:59;;;;;;;9.82;4.75;;;;;;;-2.52;100.00;101057.84;5151718;27;20050;-60
2022/03/14 02:34:26;;;;;;;10.27;4.65;;;;;;;-2.49;100.00;101060.06;5151046;27;20061;-60
2022/03/14 02:36:52;;;;;;;11.55;5.10;;;;;;;-2.49;100.00;101065.44;5151519;27;20057;-59
2022/03/14 02:39:19;;;;;;;15.75;5.07;;;;;;;-2.48;100.00;101055.50;5151518;27;20090;-60
2022/03/14 02:41:45;;;;;;;8.15;4.80;;;;;;;-2.50;100.00;101055.75;5151590;27;20050;-60
2022/03/14 02:44:12;;;;;;;7.60;4.25;;;;;;;-2.47;100.00;101065.19;5151527;27;20141;-60
2022/03/14 02:46:39;;;;;;;9.98;5.28;;;;;;;-2.49;100.00;101059.25;5151332;27;20047;-60
2022/03/14 02:49:06;;;;;;;8.65;4.47;;;;;;;-2.50;100.00;101061.13;5151271;27;20057;-60
2022/03/14 02:51:34;;;;;;;7.85;4.75;;;;;;;-2.49;100.00;101067.31;5151477;27;20042;-60
2022/03/14 02:54:02;;;;;;;10.50;4.43;;;;;;;-2.52;100.00;101065.09;5151288;27;20056;-60
2022/03/14 02:56:28;;;;;;;13.15;4.85;;;;;;;-2.51;100.00;101069.41;5151049;27;20054;-60
2022/03/14 02:58:55;;;;;;;9.77;4.72;;;;;;;-2.51;100.00;101067.53;5151235;27;20054;-60
2022/03/14 03:01:21;;;;;;;7.53;4.65;;;;;;;-2.51;100.00;101066.72;5151234;27;20509;-60
2022/03/14 03:03:49;;;;;;;9.77;4.88;;;;;;;-2.49;100.00;101072.69;5151141;27;20054;-60
2022/03/14 03:06:15;;;;;;;10.18;4.70;;;;;;;-2.52;100.00;101070.47;5151252;27;20142;-60
2022/03/14 03:08:44;;;;;;;7.53;4.40;;;;;;;-2.53;100.00;101077.72;5151322;27;20051;-60
2022/03/14 03:11:11;;;;;;;10.23;5.30;;;;;;;-2.51;100.00;101072.09;5151074;27;20103;-60
2022/03/14 03:13:38;;;;;;;8.82;4.45;;;;;;;-2.55;100.00;101074.44;5152589;27;20106;-60
2022/03/14 03:16:07;;;;;;;7.90;4.82;;;;;;;-2.56;100.00;101071.97;5154994;27;20094;-60
2022/03/14 03:18:33;;;;;;;10.82;4.75;;;;;;;-2.59;100.00;101072.44;5154962;27;20046;-60
2022/03/14 03:20:59;;;;;;;8.65;4.88;;;;;;;-2.58;100.00;101074.88;5154569;27;20517;-61
2022/03/14 03:23:25;;;;;;;11.77;5.07;;;;;;;-2.52;100.00;101081.19;5154351;27;20414;-60
2022/03/14 03:25:52;;;;;;;12.52;5.28;;;;;;;-2.53;100.00;101084.91;5154428;27;20049;-61
2022/03/14 03:28:18;;;;;;;12.95;5.75;;;;;;;-2.50;100.00;101082.63;5154494;27;20118;-60
2022/03/14 03:30:45;;;;;;;7.65;4.90;;;;;;;-2.49;100.00;101084.25;5154709;27;20047;-60
2022/03/14 03:33:11;;;;;;;11.70;5.07;;;;;;;-2.52;100.00;101076.66;5154096;27;20051;-60
2022/03/14 03:35:37;;;;;;;9.55;5.00;;;;;;;-2.53;100.00;101087.59;5154491;27;20053;-60
2022/03/14 03:38:04;;;;;;;14.32;5.47;;;;;;;-2.49;100.00;101080.75;5154283;27;20086;-60
2022/03/14 03:40:30;;;;;;;11.98;5.28;;;;;;;-2.49;100.00;101083.44;5154592;27;20042;-60
2022/03/14 03:42:56;;;;;;;8.93;5.03;;;;;;;-2.49;100.00;101083.44;5154335;27;20047;-60
2022/03/14 03:45:23;;;;;;;10.60;4.85;;;;;;;-2.45;100.00;101087.28;5154490;27;20046;-60
2022/03/14 03:47:50;;;;;;;10.82;5.25;;;;;;;-2.51;100.00;101083.66;5154206;27;20549;-60
2022/03/14 03:50:16;;;;;;;11.75;4.25;;;;;;;-2.49;100.00;101086.94;5154282;27;20191;-60
2022/03/14 03:52:43;;;;;;;12.45;5.05;;;;;;;-2.44;100.00;101094.28;5154046;27;20111;-60
2022/03/14 03:55:09;;;;;;;12.45;5.75;;;;;;;-2.47;100.00;101087.50;5154004;27;20054;-60
2022/03/14 03:57:37;;;;;;;8.70;4.78;;;;;;;-2.46;100.00;101088.34;5154105;27;20061;-60
2022/03/14 04:00:04;;;;;;;11.68;5.72;;;;;;;-2.49;100.00;101086.13;5154067;27;20051;-60
2022/03/14 04:02:35;;;;;;;9.13;4.78;;;;;;;-2.48;100.00;101088.56;5153984;27;20046;-60
2022/03/14 04:05:04;;;;;;;9.10;5.07;;;;;;;-2.53;100.00;101087.59;5153684;27;20047;-60
2022/03/14 04:07:31;;;;;;;9.27;5.07;;;;;;;-2.53;100.00;101091.13;5154048;27;20046;-60
2022/03/14 04:09:57;;;;;;;11.23;5.10;;;;;;;-2.52;100.00;101100.00;5153963;27;20050;-60
2022/03/14 04:12:25;;;;;;;10.77;5.43;;;;;;;-2.58;100.00;101104.41;5153833;27;20043;-60
2022/03/14 04:14:52;;;;;;;11.00;5.70;;;;;;;-2.55;100.00;101105.84;5153645;27;20086;-60
2022/03/14 04:17:18;;;;;;;10.60;4.97;;;;;;;-2.58;100.00;101114.34;5153817;27;20050;-60
2022/03/14 04:19:44;;;;;;;12.20;6.28;;;;;;;-2.59;100.00;101124.28;5153489;27;20087;-60
2022/03/14 04:22:13;;;;;;;11.23;5.13;;;;;;;-2.59;100.00;101123.47;5153769;27;20470;-60
2022/03/14 04:24:40;;;;;;;12.05;5.82;;;;;;;-2.62;100.00;101122.84;5152951;27;20054;-60
2022/03/14 04:27:06;;;;;;;10.77;5.53;;;;;;;-2.59;100.00;101126.16;5153679;27;20402;-60
2022/03/14 04:29:32;;;;;;;11.48;5.45;;;;;;;-2.61;100.00;101131.72;5153654;27;20179;-60
2022/03/14 04:31:59;;;;;;;10.38;5.85;;;;;;;-2.60;100.00;101138.72;5153506;27;20046;-60
2022/03/14 04:34:25;;;;;;;13.32;5.40;;;;;;;-2.58;100.00;101135.84;5153062;27;20046;-60
2022/03/14 04:36:51;;;;;;;10.90;5.35;;;;;;;-2.54;100.00;101147.75;5153549;27;20047;-60
2022/03/14 04:39:18;;;;;;;16.23;5.95;;;;;;;-2.46;100.00;101147.44;5153679;27;20070;-60
2022/03/14 04:41:45;;;;;;;13.88;6.32;;;;;;;-2.42;100.00;101148.59;5152965;27;20051;-60
2022/03/14 04:44:11;;;;;;;14.50;6.93;;;;;;;-2.40;100.00;101144.66;5153369;27;20046;-60
2022/03/14 04:46:37;;;;;;;16.42;8.45;;;;;;;-2.36;100.00;101131.56;5153055;27;20512;-60
2022/03/14 04:49:04;;;;;;;16.83;7.90;;;;;;;-2.28;100.00;101128.53;5153091;27;20118;-60
2022/03/14 04:51:31;;;;;;;19.55;7.97;;;;;;;-2.24;100.00;101124.31;5153058;27;20073;-60
2022/03/14 04:53:57;;;;;;;11.25;6.10;;;;;;;-2.18;100.00;101119.91;5153041;27;20099;-60
2022/03/14 04:56:24;;;;;;;15.60;5.60;;;;;;;-2.13;100.00;101117.34;5152998;27;20047;-60
2022/03/14 04:58:51;;;;;;;15.45;6.35;;;;;;;-2.12;100.00;101102.84;5152832;27;20525;-61
2022/03/14 05:01:19;;;;;;;14.70;6.65;;;;;;;-2.02;100.00;101095.03;5152566;27;20051;-61
2022/03/14 05:03:45;;;;;;;14.35;6.82;;;;;;;-1.92;100.00;101097.94;5152703;27;20137;-60
2022/03/14 05:06:12;;;;;;;18.15;7.57;;;;;;;-1.81;100.00;101085.53;5152942;27;20421;-61
2022/03/14 05:08:38;;;;;;;12.73;6.60;;;;;;;-1.64;100.00;101079.44;5152737;27;20451;-60
2022/03/14 05:11:04;;;;;;;18.70;7.40;;;;;;;-1.49;100.00;101056.34;5152615;27;20050;-59
2022/03/14 05:13:31;;;;;;;16.90;6.43;;;;;;;-0.47;100.00;101054.66;5152488;27;20092;-59
2022/03/14 05:15:57;;;;;;;11.93;6.22;;;;;;;0.77;100.00;100968.84;5152606;27;20160;-64
2022/03/14 05:18:24;;;;;;;12.98;6.28;;;;;;;1.44;100.00;100716.19;5152111;27;20046;-62
2022/03/14 05:20:50;;;;;;;11.20;5.70;;;;;;;1.96;100.00;100404.16;5151139;27;20054;-59
2022/03/14 05:23:16;;;;;;;13.38;5.88;;;;;;;2.57;100.00;100160.19;5151376;27;20055;-60
2022/03/14 05:25:42;;;;;;;17.88;7.07;;;;;;;2.95;100.00;100009.41;5141423;27;20065;-59
2022/03/14 05:28:09;;;;;;;18.45;6.50;;;;;;;3.14;100.00;99928.13;5152233;27;20050;-64
2022/03/14 05:30:36;;;;;;;18.13;6.28;;;;;;;3.51;100.00;99924.50;5152401;27;20043;-63
2022/03/14 05:33:02;;;;;;;10.00;6.15;;;;;;;3.91;100.00;99918.59;5149950;27;20051;-64
2022/03/14 05:35:28;;;;;;;12.52;5.43;;;;;;;4.75;100.00;99934.41;5139670;27;20490;-64
2022/03/14 05:37:55;;;;;;;12.45;5.55;;;;;;;5.08;100.00;99974.97;5147516;27;20054;-64
2022/03/14 05:40:21;;;;;;;10.82;5.68;;;;;;;5.68;100.00;100011.84;5152478;27;20413;-62
2022/03/14 05:42:49;;;;;;;8.93;5.55;;;;;;;6.09;100.00;100055.94;5132993;27;20047;-62
2022/03/14 05:45:17;;;;;;;9.98;5.75;;;;;;;6.41;100.00;100091.34;5131565;27;20499;-63
2022/03/14 05:47:46;;;;;;;9.82;5.70;;;;;;;6.90;100.00;100127.53;5131798;27;20055;-62
2022/03/14 05:50:12;;;;;;;10.15;6.45;;;;;;;7.17;100.00;100151.06;5131458;28;20137;-63
2022/03/14 05:52:39;;;;;;;11.68;6.75;;;;;;;7.42;100.00;100183.00;5131743;28;20074;-63
2022/03/14 05:55:06;;;;;;;14.20;7.60;;;;;;;7.44;100.00;100204.53;5131474;28;20426;-63
2022/03/14 05:57:33;;;;;;;12.70;6.57;;;;;;;7.20;100.00;100224.06;5135860;27;20129;-59
2022/03/14 05:59:59;;;;;;;19.88;8.57;;;;;;;6.72;100.00;100197.56;5133006;27;20502;-60
2022/03/14 06:02:26;;;;;;;42.38;14.73;;;;;;;6.66;100.00;100177.81;5131272;28;20051;-60
2022/03/14 06:04:54;;;;;;;16.33;8.38;;;;;;;7.30;100.00;100180.91;5131363;28;20529;-60
2022/03/14 06:07:21;;;;;;;29.80;11.20;;;;;;;7.90;100.00;100223.03;5148353;27;20095;-62
2022/03/14 06:09:48;;;;;;;10.65;6.68;;;;;;;8.54;100.00;100246.16;5151596;27;20062;-61
2022/03/14 06:12:23;;;;;;;12.05;6.80;;;;;;;8.74;100.00;100280.19;5149794;27;20549;-62
2022/03/14 06:14:52;;;;;;;58.92;21.55;;;;;;;8.82;100.00;100296.56;5149964;27;20042;-62
2022/03/14 06:17:18;;;;;;;51.08;17.65;;;;;;;9.03;100.00;100296.69;5144495;27;20459;-62
2022/03/14 06:19:44;;;;;;;15.55;7.03;;;;;;;9.55;100.00;100317.56;5130991;28;20084;-61
2022/03/14 06:22:11;;;;;;;18.80;8.20;;;;;;;9.73;100.00;100326.47;5140859;27;20570;-60
2022/03/14 06:24:38;;;;;;;9.45;6.00;;;;;;;9.63;100.00;100342.16;5151798;27;20094;-61
2022/03/14 06:27:04;;;;;;;11.93;6.70;;;;;;;9.49;100.00;100332.56;5151467;27;20095;-62
2022/03/14 06:29:31;;;;;;;12.50;6.85;;;;;;;9.81;100.00;100333.84;5151609;27;20056;-63
2022/03/14 06:31:57;;;;;;;9.38;6.20;;;;;;;9.98;100.00;100343.91;5151410;27;20046;-61
2022/03/14 06:34:24;;;;;;;10.80;6.75;;;;;;;9.88;100.00;100348.63;5140693;27;20050;-61
2022/03/14 06:36:50;;;;;;;11.82;6.88;;;;;;;10.19;100.00;100347.47;5130734;27;20047;-62
2022/03/14 06:39:17;;;;;;;9.10;5.78;;;;;;;10.32;100.00;100362.06;5130921;28;20047;-61
2022/03/14 06:41:44;;;;;;;9.52;6.50;;;;;;;10.34;100.00;100370.78;5130866;28;20475;-69
2022/03/14 06:44:11;;;;;;;12.55;6.65;;;;;;;10.62;100.00;100370.22;5130357;28;20150;-62
2022/03/14 06:46:38;;;;;;;11.43;6.32;;;;;;;10.47;100.00;100388.09;5130651;28;20054;-65
2022/03/14 06:49:04;;;;;;;11.23;6.43;;;;;;;10.29;100.00;100385.47;5129986;27;20134;-61
2022/03/14 06:51:30;;;;;;;10.85;7.13;;;;;;;10.37;100.00;100372.84;5130530;28;20049;-64
2022/03/14 06:53:56;;;;;;;11.45;7.00;;;;;;;10.49;100.00;100374.84;5132935;27;20046;-65
2022/03/14 06:56:23;;;;;;;12.45;6.50;;;;;;;10.79;100.00;100383.78;5141710;27;20051;-65
2022/03/14 06:58:50;;;;;;;12.07;7.40;;;;;;;10.72;100.00;100389.00;5130400;28;20047;-64
2022/03/14 07:01:18;;;;;;;11.18;7.00;;;;;;;10.95;100.00;100375.75;5129957;28;20058;-63
2022/03/14 07:03:45;;;;;;;17.30;6.43;;;;;;;11.38;100.00;100386.25;5129982;28;20054;-64
2022/03/14 07:06:11;;;;;;;13.13;6.93;;;;;;;11.34;100.00;100395.53;5129822;28;20050;-64
2022/03/14 07:08:38;;;;;;;16.88;6.88;;;;;;;11.59;100.00;100394.41;5129415;28;20413;-59
2022/03/14 07:11:04;;;;;;;13.65;8.32;;;;;;;11.86;100.00;100401.25;5141209;27;20057;-62
2022/03/14 07:13:31;;;;;;;19.85;7.70;;;;;;;12.25;100.00;100413.44;5150555;27;20051;-62
2022/03/14 07:15:57;;;;;;;11.82;7.70;;;;;;;12.47;100.00;100419.63;5150856;27;20425;-62
2022/03/14 07:18:25;;;;;;;10.73;7.07;;;;;;;12.33;100.00;100422.75;5150419;27;20047;-62
2022/03/14 07:20:51;;;;;;;13.55;7.63;;;;;;;12.07;100.00;100423.09;5130548;27;20047;-63
2022/03/14 07:23:17;;;;;;;15.27;7.47;;;;;;;12.20;100.00;100416.44;5136111;27;20047;-63
2022/03/14 07:25:43;;;;;;;19.30;8.82;;;;;;;12.39;100.00;100428.78;5150670;27;20118;-62
2022/03/14 07:28:10;;;;;;;15.73;8.52;;;;;;;12.36;100.00;100429.47;5150426;27;20530;-62
2022/03/14 07:30:38;;;;;;;19.33;9.57;;;;;;;12.47;100.00;100416.88;5148139;27;20047;-62
2022/03/14 07:33:05;;;;;;;15.85;9.02;;;;;;;12.82;100.00;100424.56;5129677;28;20585;-64
2022/03/14 07:35:32;;;;;;;24.52;10.10;;;;;;;13.09;100.00;100434.78;5143094;27;20051;-62
2022/03/14 07:37:58;;;;;;;16.40;9.13;;;;;;;13.53;100.00;100434.81;5150331;27;20051;-62
2022/03/14 07:40:24;;;;;;;16.70;9.25;;;;;;;13.60;98.35;100448.78;5150028;27;20066;-63
2022/03/14 07:42:52;;;;;;;15.50;9.27;;;;;;;13.79;97.08;100450.03;5150249;27;20051;-61
2022/03/14 07:45:21;;;;;;;14.13;8.93;;;;;;;13.94;95.83;100460.28;5129692;28;20066;-63
2022/03/14 07:47:48;;;;;;;18.80;8.48;;;;;;;13.68;97.05;100457.22;5129471;28;20395;-62
2022/03/14 07:50:16;;;;;;;31.30;15.48;;;;;;;13.65;96.87;100459.53;5129530;28;20051;-62
2022/03/14 07:52:43;;;;;;;15.35;9.07;;;;;;;13.86;96.91;100445.50;5129607;28;20054;-63
2022/03/14 07:55:10;;;;;;;17.38;8.63;;;;;;;13.72;95.45;100447.88;5129429;28;20051;-62
2022/03/14 07:57:37;;;;;;;17.05;8.68;;;;;;;13.82;95.64;100447.34;5129355;28;20127;-62
2022/03/14 08:00:06;;;;;;;14.00;7.03;;;;;;;13.48;95.05;100454.34;5129939;27;20053;-62
2022/03/14 08:02:32;;;;;;;13.25;7.15;;;;;;;13.61;96.28;100446.81;5132771;28;20528;-63
2022/03/14 08:04:59;;;;;;;13.50;6.90;;;;;;;13.32;97.04;100439.75;5132787;28;20146;-64
2022/03/14 08:07:25;;;;;;;13.00;6.65;;;;;;;13.48;96.99;100446.09;5132961;28;20051;-63
2022/03/14 08:09:52;;;;;;;9.43;6.45;;;;;;;13.56;95.93;100439.63;5134307;27;20043;-62
2022/03/14 08:12:20;;;;;;;13.52;6.43;;;;;;;13.67;95.75;100439.09;5153556;27;20057;-62
2022/03/14 08:14:47;;;;;;;11.85;6.80;;;;;;;13.43;96.63;100438.09;5153673;27;20059;-63
2022/03/14 08:17:14;;;;;;;9.15;6.13;;;;;;;13.44;94.02;100447.16;5145082;27;20074;-62
2022/03/14 08:19:40;;;;;;;10.30;5.50;;;;;;;13.34;95.27;100445.72;5135564;27;20069;-63
2022/03/14 08:22:07;;;;;;;16.60;9.43;;;;;;;13.22;95.66;100441.03;5132656;28;20047;-63
2022/03/14 08:24:34;;;;;;;11.60;6.32;;;;;;;13.32;97.27;100442.50;5132501;28;20051;-63
2022/03/14 08:27:01;;;;;;;10.77;6.13;;;;;;;13.48;96.10;100439.78;5132439;27;20059;-63
2022/03/14 08:29:28;;;;;;;9.18;5.93;;;;;;;13.52;95.56;100438.72;5132458;27;20077;-64
2022/03/14 08:31:54;;;;;;;11.60;5.65;;;;;;;13.81;95.02;100439.47;5131877;27;20043;-64
2022/03/14 08:34:20;;;;;;;10.63;6.10;;;;;;;14.09;93.17;100439.34;5131838;28;20132;-64
2022/03/14 08:36:47;;;;;;;9.70;6.60;;;;;;;14.13;93.37;100446.56;5132452;27;20468;-64
2022/03/14 08:39:13;;;;;;;12.63;6.70;;;;;;;14.20;92.80;100436.88;5132565;27;20051;-65
2022/03/14 08:41:40;;;;;;;15.63;6.30;;;;;;;14.26;93.53;100444.50;5132062;28;20051;-63
2022/03/14 08:44:07;;;;;;;11.00;6.03;;;;;;;14.16;91.46;100453.34;5132423;27;20051;-65
2022/03/14 08:46:34;;;;;;;10.57;6.97;;;;;;;14.16;93.03;100447.00;5132285;28;20043;-63
2022/03/14 08:49:01;;;;;;;8.80;5.85;;;;;;;14.43;91.50;100443.31;5132592;28;20407;-63
2022/03/14 08:51:28;;;;;;;9.93;5.90;;;;;;;14.42;90.89;100449.19;5132178;28;20058;-63
2022/03/14 08:53:54;;;;;;;11.45;6.38;;;;;;;14.36;91.28;100440.38;5132121;28;20055;-63
2022/03/14 08:56:21;;;;;;;13.80;6.35;;;;;;;14.32;89.57;100458.81;5132033;28;20051;-63
2022/03/14 08:58:48;;;;;;;10.43;6.25;;;;;;;14.40;91.14;100451.50;5131951;28;20502;-63
2022/03/14 09:01:15;;;;;;;9.57;5.95;;;;;;;14.22;90.50;100442.81;5132248;28;20065;-63
2022/03/14 09:03:42;;;;;;;9.15;6.50;;;;;;;14.25;90.17;100444.84;5129914;28;20051;-62
2022/03/14 09:06:08;;;;;;;13.52;6.70;;;;;;;13.80;89.88;100440.63;5128793;28;20062;-63
2022/03/14 09:08:35;;;;;;;21.10;11.52;;;;;;;13.73;93.29;100429.41;5133658;27;20072;-63
2022/03/14 09:11:02;;;;;;;11.10;6.03;;;;;;;13.86;91.63;100422.63;5130456;27;20043;-63
2022/03/14 09:13:29;;;;;;;11.07;7.10;;;;;;;13.72;91.76;100428.59;5131841;28;20058;-64
2022/03/14 09:15:56;;;;;;;11.48;6.10;;;;;;;13.51;93.04;100422.56;5144735;27;20051;-63
2022/03/14 09:18:26;;;;;;;12.25;7.03;;;;;;;13.29;95.56;100419.22;5134603;27;20074;-63
2022/03/14 09:20:52;;;;;;;9.45;5.82;;;;;;;13.25;95.34;100412.03;5139844;27;20133;-64
2022/03/14 09:23:20;;;;;;;13.73;6.43;;;;;;;13.31;96.92;100408.66;5152235;27;20096;-63
2022/03/14 09:25:46;;;;;;;13.32;6.60;;;;;;;13.55;96.18;100404.94;5152444;27;20046;-63
2022/03/14 09:28:13;;;;;;;9.63;5.70;;;;;;;13.66;94.04;100419.00;5152147;27;20050;-64
2022/03/14 09:30:40;;;;;;;14.77;5.50;;;;;;;13.82;94.29;100410.72;5151467;27;20053;-64
2022/03/14 09:33:06;;;;;;;10.93;6.50;;;;;;;14.05;90.54;100432.94;5148535;27;20051;-64
2022/03/14 09:35:34;;;;;;;14.02;6.60;;;;;;;14.03;90.44;100427.81;5151738;27;20042;-57
2022/03/14 09:38:00;;;;;;;10.07;6.22;;;;;;;13.91;89.38;100421.59;5152075;27;20050;-64
2022/03/14 09:40:30;;;;;;;8.68;5.68;;;;;;;13.56;91.32;100423.09;5152171;27;20054;-62
2022/03/14 09:42:59;;;;;;;11.43;5.80;;;;;;;13.60;93.08;100412.16;5131948;27;20054;-63
2022/03/14 09:45:26;;;;;;;9.50;6.65;;;;;;;13.68;94.24;100410.38;5131443;28;20085;-63
2022/03/14 09:47:57;;;;;;;10.32;6.25;;;;;;;13.40;95.57;100411.25;5131312;28;20059;-63
2022/03/14 09:50:28;;;;;;;11.73;7.22;;;;;;;13.20;95.04;100410.31;5131084;28;20051;-63
2022/03/14 09:52:55;;;;;;;12.52;6.78;;;;;;;13.09;96.58;100411.94;5131172;28;20457;-63
2022/03/14 09:55:21;;;;;;;10.75;6.15;;;;;;;12.75;96.48;100411.41;5131152;28;20051;-63
2022/03/14 09:57:48;;;;;;;13.73;7.47;;;;;;;12.78;99.82;100399.69;5131426;28;20051;-64
2022/03/14 10:00:16;;;;;;;15.05;6.93;;;;;;;12.87;99.44;100394.06;5130953;28;20043;-62
2022/03/14 10:02:43;;;;;;;12.70;6.75;;;;;;;12.52;100.00;100394.59;5131315;28;20046;-62
2022/03/14 10:05:12;;;;;;;11.25;6.57;;;;;;;12.50;100.00;100388.66;5130943;28;20162;-63
2022/03/14 10:07:40;;;;;;;10.15;7.07;;;;;;;12.34;100.00;100396.84;5132303;27;20500;-62
2022/03/14 10:10:07;;;;;;;13.93;6.65;;;;;;;12.02;100.00;100379.34;5130763;27;20054;-63
2022/03/14 10:12:33;;;;;;;12.07;6.53;;;;;;;12.07;100.00;100383.81;5130987;28;20191;-62
2022/03/14 10:15:00;;;;;;;10.45;6.03;;;;;;;12.04;100.00;100382.56;5130383;28;20475;-63
2022/03/14 10:17:27;;;;;;;11.23;6.10;;;;;;;12.20;100.00;100382.66;5130497;28;20587;-65
2022/03/14 10:19:54;;;;;;;12.20;6.25;;;;;;;11.99;100.00;100380.03;5150130;27;20047;-63
2022/03/14 10:22:21;;;;;;;11.38;6.13;;;;;;;11.94;100.00;100366.53;5146263;27;20092;-64
2022/03/14 10:24:48;;;;;;;11.98;5.95;;;;;;;12.13;100.00;100365.91;5138742;27;20057;-63
2022/03/14 10:27:19;;;;;;;14.57;7.18;;;;;;;11.77;100.00;100370.28;5146902;27;20131;-63
2022/03/14 10:29:46;;;;;;;14.32;6.18;;;;;;;11.63;100.00;100364.31;5138575;27;20047;-63
2022/03/14 10:32:19;;;;;;;13.10;6.50;;;;;;;11.96;100.00;100355.97;5144990;27;20379;-62
2022/03/14 10:34:57;;;;;;;12.68;7.07;;;;;;;12.01;100.00;100358.50;5139247;27;20054;-64
2022/03/14 10:37:27;;;;;;;15.20;6.57;;;;;;;11.92;100.00;100355.06;5130447;28;20051;-63
2022/03/14 10:39:57;;;;;;;11.35;6.63;;;;;;;11.70;100.00;100367.31;5130786;27;20051;-64
2022/03/14 10:42:24;;;;;;;9.20;6.28;;;;;;;11.80;100.00;100358.63;5130558;28;20054;-64
2022/03/14 10:44:52;;;;;;;13.00;6.72;;;;;;;11.95;100.00;100354.38;5130161;28;20043;-64
2022/03/14 10:47:19;;;;;;;12.68;7.07;;;;;;;12.13;100.00;100352.19;5132098;27;20066;-63
2022/03/14 10:49:46;;;;;;;12.07;7.22;;;;;;;12.01;100.00;100362.06;5156082;27;20046;-63
2022/03/14 10:52:14;;;;;;;11.55;6.85;;;;;;;12.05;100.00;100353.91;5150974;27;20099;-63
2022/03/14 10:54:42;;;;;;;12.68;5.93;;;;;;;11.75;100.00;100348.63;5150381;27;20066;-63
2022/03/14 10:57:12;;;;;;;10.75;6.55;;;;;;;11.87;100.00;100342.38;5148960;27;20061;-63
2022/03/14 10:59:40;;;;;;;13.70;6.22;;;;;;;12.08;100.00;100338.69;5135895;27;20531;-62
2022/03/14 11:02:10;;;;;;;11.00;6.57;;;;;;;12.09;100.00;100346.56;5129419;28;20043;-57
2022/03/14 11:04:40;;;;;;;11.43;6.13;;;;;;;12.02;100.00;100346.38;5130021;28;20134;-61
2022/03/14 11:07:07;;;;;;;12.50;6.95;;;;;;;12.04;100.00;100344.06;5129683;28;20055;-63
2022/03/14 11:09:46;;;;;;;11.43;6.97;;;;;;;11.98;100.00;100334.47;5130360;27;20501;-63
2022/03/14 11:12:13;;;;;;;15.95;8.63;;;;;;;12.08;100.00;100327.69;5129865;28;20516;-63